Capitol Logistics 235




KPHX
Phoenix Sky Harbor International Airport
Phoenix, Arizona
KMIA
Miami International Airport
Miami, Florida

Route Details

Aircraft Information
Group: Boeing Common
Types: B752,B762,B763
Route Data
Distance: 1713nm
Duration: 4h 00m
Recm'd Route: ECLPS1 PHASE ELP FST J86 LEV Y290 BLVNS Y290 BAGGS SSCOT5
Origin Wx: KPHX 160751Z 05008KT 10SM CLR 23/M07 A3004 RMK AO2 SLP156 T02281072
Dest. Wx: KMIA 160753Z 31003KT 10SM FEW035 25/22 A2990 RMK AO2 SLP126 T02500222 $
Notes:

Financial History
Total Freight: 551,466lbs
Average Load: 78,781lbs/flt
Fuel Used: 293,372lbs
Avg. Fuel Used: 41,910lbs/flt
Fuel Expense: $237,631
Avg. Fuel Expense: $33,947
Avg. Fuel Cost: $0.81/lbs
Total Gross Income: $782,860
Pilot Pay: $1,263
Total Expenses: $84,913
Total Revenue: $457,769
Average Revenue: $111,837.10